Terminal Aerodrome Forecast
Issued by NWS Louisville, KY

Home | Current Version | Previous Version | Text Only | Print | Product List | Glossary On
Versions: 1 2 3 4 5 6 7 8 9 10 11 12 13 14 15 16 17
000
FTUS43 KLMK 212300
TAFSDF
TAF
KSDF 212320Z 2200/2306 24008KT P6SM BKN060 OVC100
     FM220100 22008KT P6SM VCSH BKN050 OVC100
     FM221000 26008KT 5SM BR VCSH BKN015
     FM221200 31010KT P6SM BKN015
     FM221800 34015G20KT P6SM SCT030=

USA.gov is the U.S. government's official web portal to all federal, state and local government web resources and services.